M I D A S
Marine Information and Data Acquisition System
Tripno 1950 of the Zeeleeuw from 2010-09-01 06:23:04 to 2010-09-01 11:33:48
Back to CruiseResearch ActivitiesStationsMapUnderway DataData graphs

EquipmentUnitsComments
TimeDGPSUTC
LatitudeDGPSDM.mWGS84
LongitudeDGPSDM.mWGS84
SpeedMeteo Stationm/sRelative wind speed
DirectionMeteo StationdegRelative wind direction
TemperatureMeteo Stationdeg CelciusAir temperature
PressureMeteo StationPaAtmospheric pressure
HumidityMeteo Station%Relative humidity
Missing or incorrect values are displayed as -999
Metereological data collected by the RV Zeeleeuw from 2010-09-01 05:50:38 to 2010-09-01 11:30:41
Time Latitude Longitude Speed Direction Temperature Pressure Humidity
2010-09-01 05:51 51°13.663 2°55.958 -999 319 12.5 102130 46
2010-09-01 05:52 51°13.663 2°55.958 -999 282 12.5 102130 46
2010-09-01 05:53 51°13.662 2°55.958 -999 318 12.5 102130 46
2010-09-01 05:54 51°13.662 2°55.958 -999 282 12.5 102130 45
2010-09-01 05:55 51°13.662 2°55.958 -999 324 12.5 102130 46
2010-09-01 05:56 51°13.662 2°55.958 -999 318 12.6 102130 46
2010-09-01 05:57 51°13.663 2°55.959 -999 322 12.6 102130 46
2010-09-01 05:58 51°13.662 2°55.959 -999 317 12.6 102130 46
2010-09-01 05:59 51°13.662 2°55.959 -999 317 12.7 102130 46
2010-09-01 06:00 51°13.662 2°55.96 -999 282 12.7 102130 46
2010-09-01 06:01 51°13.662 2°55.959 -999 282 12.8 102130 46
2010-09-01 06:02 51°13.662 2°55.96 -999 316 12.8 102130 45
2010-09-01 06:03 51°13.662 2°55.96 -999 321 12.8 102130 46
2010-09-01 06:04 51°13.662 2°55.961 -999 322 12.8 102130 46
2010-09-01 06:05 51°13.661 2°55.961 -999 282 12.8 102130 46
2010-09-01 06:06 51°13.666 2°55.935 -999 334 12.8 102130 46
2010-09-01 06:07 51°13.691 2°55.846 -999 82 12.8 102130 46
2010-09-01 06:08 51°13.698 2°55.758 -999 23 12.8 102130 46
2010-09-01 06:09 51°13.698 2°55.747 0.2 351 12.8 102130 45
2010-09-01 06:10 51°13.686 2°55.747 0.4 16 12.8 102140 44
2010-09-01 06:11 51°13.726 2°55.746 0.1 353 12.8 102130 46
2010-09-01 06:12 51°13.787 2°55.666 -999 282 12.8 102130 45
2010-09-01 06:13 51°13.888 2°55.588 1.2 337 12.8 102130 46
2010-09-01 06:14 51°14.007 2°55.5 2.2 285 12.8 102130 44
2010-09-01 06:15 51°14.143 2°55.399 2 339 12.9 102130 45
2010-09-01 06:16 51°14.287 2°55.27 1.7 284 12.9 102130 47
2010-09-01 06:17 51°14.429 2°55.135 2.4 334 12.9 102130 44
2010-09-01 06:18 51°14.594 2°54.965 4.3 280 12.9 102130 42
2010-09-01 06:19 51°14.775 2°54.777 3.9 337 13 102130 44
2010-09-01 06:20 51°14.959 2°54.569 3.7 335 13.1 102130 44
2010-09-01 06:21 51°15.132 2°54.369 4 279 13.2 102130 44
2010-09-01 06:22 51°15.3 2°54.165 3.5 284 13.3 102130 44
2010-09-01 06:23 51°15.474 2°53.953 4 284 13.4 102130 43
2010-09-01 06:24 51°15.648 2°53.742 3.8 339 13.5 102130 43
2010-09-01 06:25 51°15.822 2°53.537 4.1 285 13.5 102130 45
2010-09-01 06:26 51°15.996 2°53.333 4.2 339 13.6 102130 44
2010-09-01 06:27 51°16.215 2°53.127 4.4 284 13.7 102130 45
2010-09-01 06:29 51°16.528 2°52.865 3.9 337 13.8 102130 44
2010-09-01 06:33 51°17.316 2°52.216 3.9 340 14.1 102130 44
2010-09-01 06:35 51°17.765 2°51.777 3.3 335 14.3 102130 44
2010-09-01 06:36 51°17.922 2°51.535 4.1 332 14.4 102130 44
2010-09-01 06:37 51°18.071 2°51.294 4 333 14.4 102130 45
2010-09-01 06:38 51°18.222 2°51.048 3.9 333 14.5 102130 46
2010-09-01 06:39 51°18.374 2°50.801 3.8 332 14.5 102130 44
2010-09-01 06:40 51°18.53 2°50.549 4.1 333 14.6 102120 44
2010-09-01 06:41 51°18.679 2°50.304 4.8 335 14.6 102120 46
2010-09-01 06:42 51°18.83 2°50.058 4.2 337 14.7 102120 46
2010-09-01 06:43 51°18.983 2°49.811 6.6 344 14.6 102120 43
2010-09-01 06:44 51°19.132 2°49.574 5.1 347 14.6 102120 44
2010-09-01 06:45 51°19.285 2°49.333 5.6 346 14.7 102120 42
2010-09-01 06:46 51°19.436 2°49.088 5 344 14.7 102120 44
2010-09-01 06:47 51°19.589 2°48.845 5.5 344 14.8 102130 43
2010-09-01 06:48 51°19.746 2°48.605 6.6 345 14.9 102110 42
2010-09-01 06:49 51°19.894 2°48.353 5.5 348 14.9 102120 42
2010-09-01 06:50 51°20.039 2°48.096 6.2 347 15 102120 42
2010-09-01 06:51 51°20.178 2°47.837 5.8 342 14.9 102120 42
2010-09-01 06:52 51°20.319 2°47.585 5.5 344 15 102120 43
2010-09-01 06:53 51°20.46 2°47.329 5.9 348 15 102120 42
2010-09-01 06:54 51°20.598 2°47.082 5.8 346 15 102130 41
2010-09-01 06:55 51°20.742 2°46.826 5 348 15.1 102130 43
2010-09-01 06:56 51°20.883 2°46.581 5.2 342 15.1 102130 43
2010-09-01 06:57 51°21.029 2°46.325 4.9 355 15.1 102130 42
2010-09-01 06:58 51°21.171 2°46.078 4.6 353 15.1 102140 41
2010-09-01 06:59 51°21.318 2°45.828 5.7 351 15.1 102130 43
2010-09-01 07:00 51°21.466 2°45.574 7.3 355 15.1 102130 41
2010-09-01 07:01 51°21.605 2°45.309 6.4 353 15.1 102120 41
2010-09-01 07:02 51°21.746 2°45.038 6.1 350 15.2 102120 40
2010-09-01 07:03 51°21.877 2°44.775 6.1 354 15.2 102140 41
2010-09-01 07:04 51°22.011 2°44.509 5.9 345 15.1 102130 39
2010-09-01 07:05 51°22.141 2°44.255 5.2 356 15.1 102140 40
2010-09-01 07:06 51°22.274 2°43.996 6.3 352 15.2 102140 41
2010-09-01 07:07 51°22.405 2°43.737 5 351 15.1 102140 39
2010-09-01 07:08 51°22.536 2°43.488 6 353 15.2 102140 41
2010-09-01 07:09 51°22.616 2°43.352 3.8 2 15.2 102150 39
2010-09-01 07:10 51°22.662 2°43.293 3.3 13 15.2 102160 39
2010-09-01 07:11 51°22.674 2°43.307 3 21 15.2 102150 39
2010-09-01 07:12 51°22.686 2°43.32 4.2 27 15.3 102150 40
2010-09-01 07:13 51°22.696 2°43.331 2.8 27 15.3 102150 40
2010-09-01 07:14 51°22.706 2°43.342 2.3 29 15.3 102150 41
2010-09-01 07:15 51°22.716 2°43.349 3.2 32 15.3 102150 39
2010-09-01 07:16 51°22.724 2°43.355 4.9 30 15.4 102150 42
2010-09-01 07:17 51°22.732 2°43.362 3.3 30 15.3 102160 41
2010-09-01 07:18 51°22.74 2°43.371 3.1 20 15.3 102160 39
2010-09-01 07:19 51°22.746 2°43.38 3.8 25 15.4 102150 40
2010-09-01 07:20 51°22.752 2°43.391 3 25 15.4 102150 40
2010-09-01 07:21 51°22.757 2°43.401 3.1 26 15.4 102160 41
2010-09-01 07:22 51°22.762 2°43.412 3.4 23 15.4 102150 40
2010-09-01 07:23 51°22.765 2°43.423 2.6 26 15.4 102150 40
2010-09-01 07:24 51°22.768 2°43.434 4.2 24 15.4 102160 41
2010-09-01 07:25 51°22.769 2°43.447 4.2 30 15.5 102160 42
2010-09-01 07:26 51°22.771 2°43.46 3.9 32 15.4 102160 39
2010-09-01 07:27 51°22.773 2°43.474 3.1 35 15.5 102170 40
2010-09-01 07:28 51°22.775 2°43.487 2.9 33 15.3 102160 38
2010-09-01 07:29 51°22.777 2°43.501 3.3 30 15.4 102160 42
2010-09-01 07:30 51°22.778 2°43.517 4.6 35 15.5 102160 41
2010-09-01 07:31 51°22.779 2°43.533 2.6 31 15.4 102160 41
2010-09-01 07:32 51°22.781 2°43.547 4.1 40 15.4 102160 39
2010-09-01 07:33 51°22.782 2°43.563 3.4 32 15.3 102160 40
2010-09-01 07:34 51°22.782 2°43.58 2.7 27 15.4 102160 40
2010-09-01 07:35 51°22.783 2°43.593 3 37 15.4 102170 39
2010-09-01 07:36 51°22.782 2°43.561 1.4 54 15.5 102160 40
2010-09-01 07:37 51°22.762 2°43.486 -999 55 15.5 102170 40
2010-09-01 07:38 51°22.743 2°43.417 -999 55 15.5 102170 40
2010-09-01 07:39 51°22.736 2°43.39 2 54 15.5 102170 38
2010-09-01 07:40 51°22.738 2°43.398 2.7 50 15.7 102170 38
2010-09-01 07:41 51°22.74 2°43.406 2.7 60 15.7 102170 38
2010-09-01 07:42 51°22.742 2°43.411 2.9 38 15.7 102180 39
2010-09-01 07:43 51°22.745 2°43.416 3.7 37 15.7 102170 41
2010-09-01 07:44 51°22.749 2°43.421 3.2 27 15.7 102170 40
2010-09-01 07:45 51°22.753 2°43.427 2.8 34 15.6 102170 40
2010-09-01 07:46 51°22.758 2°43.434 3.3 23 15.6 102170 40
2010-09-01 07:47 51°22.761 2°43.44 2.5 26 15.5 102170 39
2010-09-01 07:48 51°22.764 2°43.448 2.5 24 15.5 102170 39
2010-09-01 07:49 51°22.766 2°43.457 3.3 18 15.6 102170 40
2010-09-01 07:50 51°22.768 2°43.466 3.7 25 15.7 102180 41
2010-09-01 07:51 51°22.767 2°43.474 3.4 28 15.7 102180 40
2010-09-01 07:52 51°22.768 2°43.484 3.6 30 15.6 102170 41
2010-09-01 07:53 51°22.766 2°43.494 2.8 21 15.6 102170 39
2010-09-01 07:54 51°22.765 2°43.505 4 30 15.6 102170 40
2010-09-01 07:55 51°22.764 2°43.515 3.7 30 15.6 102170 40
2010-09-01 07:56 51°22.765 2°43.513 4.1 34 15.5 102170 39
2010-09-01 07:57 51°22.768 2°43.485 2.7 39 15.5 102180 39
2010-09-01 07:58 51°22.768 2°43.451 2 40 15.5 102180 41
2010-09-01 07:59 51°22.76 2°43.427 0.4 53 15.5 102180 40
2010-09-01 08:00 51°22.752 2°43.412 2.8 59 15.6 102180 42
2010-09-01 08:01 51°22.749 2°43.408 3.6 59 15.5 102180 39
2010-09-01 08:02 51°22.748 2°43.405 3 42 15.4 102190 40
2010-09-01 08:03 51°22.749 2°43.401 2.7 38 15.4 102180 39
2010-09-01 08:04 51°22.75 2°43.4 2.5 33 15.4 102180 39
2010-09-01 08:05 51°22.752 2°43.4 2.3 32 15.4 102190 40
2010-09-01 08:06 51°22.754 2°43.401 3.3 35 15.4 102190 40
2010-09-01 08:07 51°22.755 2°43.404 3.7 31 15.4 102190 40
2010-09-01 08:08 51°22.756 2°43.407 2.7 27 15.4 102190 38
2010-09-01 08:09 51°22.758 2°43.407 2.4 18 15.4 102190 40
2010-09-01 08:10 51°22.795 2°43.405 4.6 345 15.4 102190 39
2010-09-01 08:11 51°22.827 2°43.469 4.2 300 15.4 102180 40
2010-09-01 08:12 51°22.817 2°43.545 4.7 306 15.5 102190 39
2010-09-01 08:13 51°22.806 2°43.577 3.1 302 15.6 102190 39
2010-09-01 08:15 51°22.804 2°43.58 2.4 64 15.6 102190 38
2010-09-01 08:15 51°22.782 2°43.565 -999 55 15.7 102200 40
2010-09-01 08:16 51°22.765 2°43.53 -999 55 15.8 102190 40
2010-09-01 08:17 51°22.755 2°43.5 -999 55 15.9 102190 40
2010-09-01 08:18 51°22.749 2°43.477 1.1 60 16.1 102190 41
2010-09-01 08:19 51°22.746 2°43.465 2.3 42 16.1 102200 40
2010-09-01 08:20 51°22.745 2°43.46 -999 42 16.1 102190 41
2010-09-01 08:21 51°22.745 2°43.464 2 51 16.2 102190 42
2010-09-01 08:22 51°22.745 2°43.468 1.2 57 16.1 102190 42
2010-09-01 08:23 51°22.744 2°43.47 4.8 53 15.8 102190 44
2010-09-01 08:24 51°22.746 2°43.468 4.6 54 15.7 102190 45
2010-09-01 08:25 51°22.747 2°43.462 3.5 51 15.6 102190 43
2010-09-01 08:26 51°22.749 2°43.454 3.1 53 15.4 102190 43
2010-09-01 08:27 51°22.749 2°43.444 2.8 306 15.3 102190 43
2010-09-01 08:28 51°22.748 2°43.434 2.5 308 15.2 102190 43
2010-09-01 08:29 51°22.747 2°43.425 4.8 301 15.3 102190 44
2010-09-01 08:30 51°22.747 2°43.416 3.5 311 15.2 102190 43
2010-09-01 08:31 51°22.751 2°43.416 3.9 308 15.1 102190 44
2010-09-01 08:32 51°22.757 2°43.419 3.7 304 15.1 102190 44
2010-09-01 08:33 51°22.761 2°43.42 3.6 59 15.1 102200 43
2010-09-01 08:34 51°22.764 2°43.421 3.1 50 15 102200 45
2010-09-01 08:35 51°22.767 2°43.421 3 52 15.1 102200 44
2010-09-01 08:36 51°22.768 2°43.417 2.8 59 15.1 102200 43
2010-09-01 08:37 51°22.77 2°43.413 3.1 59 15.1 102200 43
2010-09-01 08:38 51°22.77 2°43.406 3.4 59 15.1 102200 45
2010-09-01 08:39 51°22.769 2°43.397 3.6 51 15.1 102200 45
2010-09-01 08:40 51°22.768 2°43.386 1.6 301 15 102200 44
2010-09-01 08:41 51°22.767 2°43.378 1.5 304 15.1 102200 43
2010-09-01 08:42 51°22.769 2°43.376 2.1 305 15.2 102200 43
2010-09-01 08:43 51°22.776 2°43.381 3.5 17 15.2 102200 46
2010-09-01 08:44 51°22.782 2°43.392 3 59 15.1 102200 44
2010-09-01 08:45 51°22.785 2°43.399 4.6 54 15.1 102210 44
2010-09-01 08:46 51°22.788 2°43.402 3.1 51 15.1 102200 46
2010-09-01 08:47 51°22.79 2°43.402 4.7 51 15.1 102200 44
2010-09-01 08:48 51°22.792 2°43.397 3.2 53 15.1 102200 44
2010-09-01 08:49 51°22.792 2°43.391 2.8 302 15.1 102200 44
2010-09-01 08:50 51°22.791 2°43.383 2.7 309 15.1 102200 44
2010-09-01 08:51 51°22.791 2°43.372 2.9 311 15.2 102200 45
2010-09-01 08:52 51°22.789 2°43.36 3.1 308 15.2 102200 44
2010-09-01 08:53 51°22.787 2°43.347 2.9 310 15.1 102210 45
2010-09-01 08:54 51°22.787 2°43.338 2.8 61 15.2 102200 44
2010-09-01 08:55 51°22.79 2°43.342 3.3 58 15.2 102210 44
2010-09-01 08:56 51°22.795 2°43.36 3.5 60 15.3 102210 44
2010-09-01 08:57 51°22.796 2°43.38 4.5 51 15.2 102200 44
2010-09-01 08:58 51°22.797 2°43.401 3.3 57 15.3 102210 44
2010-09-01 08:59 51°22.795 2°43.416 3.7 52 15.2 102210 46
2010-09-01 09:00 51°22.792 2°43.426 2.7 52 15.1 102210 43
2010-09-01 09:01 51°22.79 2°43.431 3 59 15.1 102210 44
2010-09-01 09:02 51°22.787 2°43.428 2.6 54 15.1 102210 43
2010-09-01 09:03 51°22.782 2°43.405 2.9 298 15.1 102200 44
2010-09-01 09:04 51°22.774 2°43.367 2.8 306 15.2 102200 44
2010-09-01 09:05 51°22.765 2°43.33 2.5 304 15.3 102210 46
2010-09-01 09:06 51°22.765 2°43.329 3.1 58 15.2 102210 43
2010-09-01 09:08 51°22.774 2°43.373 4.1 51 15.2 102200 45
2010-09-01 09:08 51°22.782 2°43.427 4.5 59 15.1 102200 44
2010-09-01 09:09 51°22.786 2°43.466 2.9 54 15.1 102200 42
2010-09-01 09:10 51°22.787 2°43.494 3 53 15.2 102200 44
2010-09-01 09:11 51°22.784 2°43.514 2.5 52 15.1 102200 45
2010-09-01 09:12 51°22.779 2°43.527 0.5 59 15.1 102200 44
2010-09-01 09:13 51°22.775 2°43.536 1.9 55 15 102200 44
2010-09-01 09:14 51°22.77 2°43.528 1.5 53 15.1 102200 45
2010-09-01 09:15 51°22.76 2°43.497 0.8 308 15.2 102200 46
2010-09-01 09:16 51°22.743 2°43.461 1.5 306 15.3 102200 44
2010-09-01 09:17 51°22.729 2°43.433 1.2 310 15.4 102200 43
2010-09-01 09:18 51°22.724 2°43.418 1.6 308 15.5 102200 44
2010-09-01 09:19 51°22.725 2°43.416 1.8 307 15.4 102200 45
2010-09-01 09:20 51°22.727 2°43.42 2.3 58 15.5 102200 44
2010-09-01 09:21 51°22.728 2°43.428 3.6 54 15.5 102200 44
2010-09-01 09:22 51°22.728 2°43.436 2.9 54 15.5 102200 45
2010-09-01 09:23 51°22.726 2°43.446 2.4 58 15.4 102210 43
2010-09-01 09:24 51°22.724 2°43.418 -999 55 15.3 102200 44
2010-09-01 09:25 51°22.743 2°43.342 -999 55 15.3 102200 43
2010-09-01 09:26 51°22.764 2°43.274 -999 55 15.4 102200 44
2010-09-01 09:27 51°22.777 2°43.222 -999 55 15.3 102210 44
2010-09-01 09:28 51°22.786 2°43.181 -999 55 15.4 102210 44
2010-09-01 09:29 51°22.792 2°43.149 -999 55 15.5 102210 44
2010-09-01 09:30 51°22.803 2°43.118 -999 42 15.5 102210 44
2010-09-01 09:31 51°22.833 2°43.112 2.2 8 15.5 102210 44
2010-09-01 09:32 51°22.85 2°43.151 3.3 342 15.4 102200 44
2010-09-01 09:33 51°22.844 2°43.191 4 340 15.4 102200 43
2010-09-01 09:34 51°22.825 2°43.213 3.1 324 15.3 102200 45
2010-09-01 09:35 51°22.8 2°43.223 3.4 306 15.3 102210 44
2010-09-01 09:36 51°22.775 2°43.223 2.9 304 15.4 102200 44
2010-09-01 09:37 51°22.755 2°43.217 2.3 310 15.5 102200 43
2010-09-01 09:38 51°22.746 2°43.201 2.3 306 15.5 102200 43
2010-09-01 09:39 51°22.739 2°43.182 2.6 301 15.5 102210 45
2010-09-01 09:40 51°22.731 2°43.162 2.5 307 15.6 102210 44
2010-09-01 09:41 51°22.722 2°43.142 3.4 301 15.7 102200 43
2010-09-01 09:42 51°22.713 2°43.119 3.3 304 15.8 102200 45
2010-09-01 09:43 51°22.704 2°43.095 2.8 308 15.7 102200 43
2010-09-01 09:44 51°22.691 2°43.069 3.9 309 15.7 102210 43
2010-09-01 09:45 51°22.655 2°43.063 3.6 301 15.7 102200 43
2010-09-01 09:46 51°22.632 2°43.101 3.6 342 15.7 102200 44
2010-09-01 09:47 51°22.638 2°43.142 2.9 359 15.5 102200 43
2010-09-01 09:48 51°22.655 2°43.172 2.9 6 15.4 102200 43
2010-09-01 09:49 51°22.667 2°43.182 2.9 11 15.3 102200 44
2010-09-01 09:50 51°22.673 2°43.182 1.7 6 15.3 102210 45
2010-09-01 09:51 51°22.676 2°43.179 2 2 15.3 102200 45
2010-09-01 09:52 51°22.677 2°43.172 3.1 355 15.3 102200 44
2010-09-01 09:53 51°22.676 2°43.162 3.1 356 15.2 102200 43
2010-09-01 09:54 51°22.674 2°43.148 2.5 356 15.1 102200 44
2010-09-01 09:55 51°22.672 2°43.131 1.5 5 15.1 102200 45
2010-09-01 09:56 51°22.669 2°43.113 2.8 11 15.1 102190 45
2010-09-01 09:57 51°22.667 2°43.091 3.4 17 15.1 102190 43
2010-09-01 09:58 51°22.662 2°43.07 2.9 18 15.2 102190 45
2010-09-01 09:59 51°22.659 2°43.047 3.3 18 15.3 102200 43
2010-09-01 10:00 51°22.668 2°43.036 3.1 355 15.2 102190 44
2010-09-01 10:01 51°22.674 2°43.08 2.8 325 15.1 102190 45
2010-09-01 10:02 51°22.659 2°43.119 2.8 301 15.3 102190 45
2010-09-01 10:03 51°22.639 2°43.15 3.4 306 15.3 102200 45
2010-09-01 10:04 51°22.629 2°43.193 3.4 341 15.5 102190 45
2010-09-01 10:05 51°22.643 2°43.221 1.1 354 15.4 102190 43
2010-09-01 10:06 51°22.658 2°43.236 3.2 357 15.3 102190 43
2010-09-01 10:07 51°22.675 2°43.259 2.2 353 15.2 102200 44
2010-09-01 10:08 51°22.691 2°43.285 3.3 357 15.2 102190 43
2010-09-01 10:09 51°22.705 2°43.318 3.4 347 15.2 102200 45
2010-09-01 10:10 51°22.713 2°43.333 1 340 15.2 102190 44
2010-09-01 10:11 51°22.713 2°43.33 0.8 337 15.1 102200 43
2010-09-01 10:12 51°22.716 2°43.337 3.7 350 15.2 102200 43
2010-09-01 10:13 51°22.722 2°43.344 2.7 349 15.2 102190 43
2010-09-01 10:14 51°22.73 2°43.351 3.5 352 15.2 102200 43
2010-09-01 10:15 51°22.733 2°43.346 2.4 359 15.1 102190 43
2010-09-01 10:16 51°22.733 2°43.335 -999 354 15.1 102200 45
2010-09-01 10:17 51°22.729 2°43.32 3.1 1 15.1 102200 45
2010-09-01 10:18 51°22.746 2°43.326 3.7 1 15.1 102200 44
2010-09-01 10:19 51°22.769 2°43.342 4.4 358 15.1 102190 45
2010-09-01 10:20 51°22.784 2°43.345 4.2 353 15.2 102200 45
2010-09-01 10:21 51°22.794 2°43.338 3.5 357 15.1 102190 43
2010-09-01 10:22 51°22.798 2°43.324 3.1 2 15.1 102190 43
2010-09-01 10:23 51°22.804 2°43.311 3.5 351 15.1 102190 44
2010-09-01 10:24 51°22.809 2°43.393 5.5 304 15.1 102200 44
2010-09-01 10:25 51°22.7 2°43.559 7 306 15.3 102190 44
2010-09-01 10:26 51°22.538 2°43.765 7.7 324 15.5 102180 44
2010-09-01 10:27 51°22.373 2°43.984 7.5 306 15.6 102170 44
2010-09-01 10:28 51°22.205 2°44.197 7.8 323 15.7 102180 43
2010-09-01 10:29 51°22.039 2°44.414 6.8 302 15.8 102180 43
2010-09-01 10:30 51°21.879 2°44.641 7.4 305 15.9 102180 43
2010-09-01 10:31 51°21.723 2°44.875 6.3 325 15.9 102180 43
2010-09-01 10:32 51°21.567 2°45.113 7.1 306 15.9 102180 44
2010-09-01 10:33 51°21.41 2°45.351 6.9 323 15.9 102180 43
2010-09-01 10:34 51°21.24 2°45.563 7 306 15.9 102180 43
2010-09-01 10:35 51°21.055 2°45.738 7.4 301 16 102180 43
2010-09-01 10:36 51°20.88 2°45.933 7.9 307 15.9 102180 42
2010-09-01 10:37 51°20.729 2°46.165 7.2 320 15.9 102170 42
2010-09-01 10:38 51°20.589 2°46.408 6.8 306 15.9 102170 43
2010-09-01 10:39 51°20.441 2°46.643 6.4 305 15.9 102180 42
2010-09-01 10:40 51°20.294 2°46.879 7 305 16 102180 42
2010-09-01 10:41 51°20.146 2°47.114 7.4 302 16 102180 43
2010-09-01 10:42 51°19.995 2°47.348 7.1 307 15.9 102170 41
2010-09-01 10:43 51°19.844 2°47.583 7.7 307 15.9 102160 42
2010-09-01 10:44 51°19.69 2°47.817 7.5 306 15.9 102170 41
2010-09-01 10:45 51°19.54 2°48.049 7 302 15.9 102170 42
2010-09-01 10:46 51°19.389 2°48.275 8.3 309 15.9 102160 42
2010-09-01 10:47 51°19.245 2°48.51 7.3 307 15.9 102170 42
2010-09-01 10:48 51°19.104 2°48.745 7.6 304 15.9 102170 43
2010-09-01 10:49 51°18.962 2°48.98 7 306 15.9 102170 42
2010-09-01 10:50 51°18.823 2°49.217 7.6 307 15.9 102170 41
2010-09-01 10:51 51°18.683 2°49.453 7.3 301 15.9 102170 41
2010-09-01 10:52 51°18.543 2°49.691 7.1 306 15.9 102160 41
2010-09-01 10:53 51°18.397 2°49.928 7 300 15.9 102160 42
2010-09-01 10:54 51°18.253 2°50.168 6.9 302 15.9 102160 41
2010-09-01 10:55 51°18.113 2°50.415 6.9 307 15.9 102160 42
2010-09-01 10:56 51°17.99 2°50.679 7.2 303 15.9 102150 42
2010-09-01 10:57 51°17.872 2°50.948 6.4 302 15.9 102150 42
2010-09-01 10:58 51°17.755 2°51.215 7.1 306 16 102150 41
2010-09-01 10:59 51°17.636 2°51.48 6 304 16 102150 42
2010-09-01 11:00 51°17.517 2°51.749 7 304 15.9 102150 41
2010-09-01 11:01 51°17.381 2°52.006 6.5 304 16 102160 41
2010-09-01 11:02 51°17.203 2°52.212 5.7 308 15.9 102150 41
2010-09-01 11:03 51°17.025 2°52.411 6.2 300 15.9 102150 41
2010-09-01 11:04 51°16.851 2°52.618 5.7 308 15.8 102150 40
2010-09-01 11:05 51°16.677 2°52.83 6.2 307 15.8 102160 40
2010-09-01 11:06 51°16.499 2°53.034 6.4 306 15.8 102150 40
2010-09-01 11:07 51°16.307 2°53.196 5.7 304 15.7 102150 40
2010-09-01 11:08 51°16.104 2°53.329 4.8 307 15.7 102160 40
2010-09-01 11:09 51°15.904 2°53.466 5.9 307 15.7 102160 40
2010-09-01 11:10 51°15.707 2°53.609 5.6 303 15.8 102160 41
2010-09-01 11:11 51°15.523 2°53.783 5.4 309 15.8 102150 40
2010-09-01 11:12 51°15.346 2°53.974 6.7 308 15.8 102150 41
2010-09-01 11:13 51°15.174 2°54.174 6.6 309 15.8 102150 41
2010-09-01 11:14 51°15.002 2°54.369 5.2 309 15.7 102150 39
2010-09-01 11:15 51°14.827 2°54.587 6.7 304 15.8 102140 41
2010-09-01 11:16 51°14.663 2°54.795 6.7 305 15.7 102150 41
2010-09-01 11:17 51°14.505 2°54.993 6.2 306 15.7 102150 40
2010-09-01 11:18 51°14.344 2°55.2 6.4 308 15.8 102140 41
2010-09-01 11:19 51°14.202 2°55.346 5.1 307 15.8 102150 41
2010-09-01 11:20 51°14.08 2°55.442 2.4 304 15.9 102160 42
2010-09-01 11:21 51°13.962 2°55.527 2.2 306 16.1 102160 42
2010-09-01 11:22 51°13.875 2°55.592 3 309 16.3 102160 41
2010-09-01 11:23 51°13.798 2°55.664 1.9 308 16.3 102160 40
2010-09-01 11:24 51°13.739 2°55.756 1.7 307 16.3 102160 41
2010-09-01 11:25 51°13.692 2°55.853 2.9 303 16.4 102150 39
2010-09-01 11:26 51°13.667 2°55.942 2 307 16.6 102160 40
2010-09-01 11:27 51°13.662 2°55.959 4.9 15 16.7 102150 40
2010-09-01 11:28 51°13.662 2°55.959 1.7 54 16.6 102160 39
2010-09-01 11:29 51°13.661 2°55.959 3.3 48 16.5 102150 39